Time;durP1;ratioP1;P1;durP2;ratioP2;P2;SDS_P1;SDS_P2;PMS_P1;PMS_P2;Temp;Humidity;BMP_temperature;BMP_pressure;BME280_temperature;BME280_humidity;BME280_pressure;Samples;Min_cycle;Max_cycle;Signal;HPM_P1;HPM_P2
2024/04/21 11:09:27;;;;;;;2.00;1.83;;;;;;;;;;5018261;28;20068;-77
2024/04/21 11:11:53;;;;;;;2.25;1.80;;;;;;;;;;4997011;28;20059;-81
2024/04/21 11:14:19;;;;;;;3.42;2.00;;;;;;;;;;4975024;28;20080;-76
2024/04/21 11:16:52;;;;;;;2.30;2.20;;;;;;;;;;5012121;28;20420;-78
2024/04/21 11:19:17;;;;;;;5.15;2.17;;;;;;;;;;4981881;28;20059;-79
2024/04/21 11:21:44;;;;;;;5.22;2.05;;;;;;;;;;5015795;28;20037;-77
2024/04/21 11:24:10;;;;;;;2.70;2.05;;;;;;;;;;4982595;28;20038;-78
2024/04/21 11:26:35;;;;;;;4.72;1.90;;;;;;;;;;5033552;28;20048;-79
2024/04/21 11:29:01;;;;;;;3.70;2.10;;;;;;;;;;4979137;28;20054;-79
2024/04/21 11:31:27;;;;;;;3.97;1.90;;;;;;;;;;5011396;28;20505;-79
2024/04/21 11:33:59;;;;;;;2.28;1.92;;;;;;;;;;5015509;28;20025;-78
2024/04/21 11:36:25;;;;;;;3.20;2.15;;;;;;;;;;5015608;28;20037;-78
2024/04/21 11:38:51;;;;;;;3.70;2.00;;;;;;;;;;5035001;28;20529;-78
2024/04/21 11:41:17;;;;;;;4.88;1.90;;;;;;;;;;5012894;28;20036;-78
2024/04/21 11:43:46;;;;;;;3.92;2.53;;;;;;;;;;5016249;28;20127;-78
2024/04/21 11:46:12;;;;;;;4.95;2.20;;;;;;;;;;5010897;28;20663;-77
2024/04/21 11:48:38;;;;;;;3.47;2.45;;;;;;;;;;5013170;28;20124;-78
2024/04/21 11:51:04;;;;;;;3.85;2.00;;;;;;;;;;5032248;28;20049;-77
2024/04/21 11:53:30;;;;;;;6.00;1.90;;;;;;;;;;5017840;28;20509;-77
2024/04/21 11:55:56;;;;;;;2.67;1.92;;;;;;;;;;5019124;28;20048;-77
2024/04/21 11:58:23;;;;;;;5.50;2.40;;;;;;;;;;5008410;28;20041;-78
2024/04/21 12:00:49;;;;;;;4.25;2.75;;;;;;;;;;5000323;28;20092;-78
2024/04/21 12:03:15;;;;;;;3.08;1.70;;;;;;;;;;5013462;28;20033;-79
2024/04/21 12:05:44;;;;;;;2.08;1.65;;;;;;;;;;5043947;28;20033;-77
2024/04/21 12:08:10;;;;;;;4.55;2.00;;;;;;;;;;5049670;28;20028;-77
2024/04/21 12:10:36;;;;;;;2.85;1.80;;;;;;;;;;5043400;28;20052;-77
2024/04/21 12:13:03;;;;;;;3.55;2.28;;;;;;;;;;5030213;28;20032;-77
2024/04/21 12:15:29;;;;;;;5.18;1.70;;;;;;;;;;4998539;28;20040;-78
2024/04/21 12:18:04;;;;;;;5.22;2.97;;;;;;;;;;5049970;28;20033;-77
2024/04/21 12:20:30;;;;;;;2.50;2.00;;;;;;;;;;5028039;28;20154;-77
2024/04/21 12:22:56;;;;;;;1.98;1.70;;;;;;;;;;5012595;28;20444;-76
2024/04/21 12:25:21;;;;;;;4.85;2.45;;;;;;;;;;5027306;28;20044;-77
2024/04/21 12:27:47;;;;;;;2.35;1.88;;;;;;;;;;5046846;28;20041;-77
2024/04/21 12:30:14;;;;;;;3.63;1.67;;;;;;;;;;5041159;28;20169;-75
2024/04/21 12:32:40;;;;;;;4.03;1.95;;;;;;;;;;5021474;28;20404;-76
2024/04/21 12:35:06;;;;;;;2.03;1.70;;;;;;;;;;5017855;28;20037;-78
2024/04/21 12:37:31;;;;;;;2.70;1.73;;;;;;;;;;5016016;28;20617;-76
2024/04/21 12:39:57;;;;;;;4.65;1.95;;;;;;;;;;5018728;28;20041;-80
2024/04/21 12:42:23;;;;;;;5.28;2.38;;;;;;;;;;5028808;28;20032;-77
2024/04/21 12:44:49;;;;;;;6.57;2.10;;;;;;;;;;5001797;28;20768;-78
2024/04/21 12:47:16;;;;;;;1.80;1.70;;;;;;;;;;5016722;28;20029;-80
2024/04/21 12:49:42;;;;;;;4.18;2.60;;;;;;;;;;5031951;28;20046;-80
2024/04/21 12:52:08;;;;;;;4.32;2.17;;;;;;;;;;5029579;28;20029;-79
2024/04/21 12:54:34;;;;;;;3.97;2.35;;;;;;;;;;4988484;28;20124;-79
2024/04/21 12:57:00;;;;;;;2.80;1.95;;;;;;;;;;5022897;28;20119;-78
2024/04/21 12:59:26;;;;;;;4.00;2.33;;;;;;;;;;5014002;28;20054;-79
2024/04/21 13:01:52;;;;;;;2.05;1.90;;;;;;;;;;5017301;28;20113;-79
2024/04/21 13:04:18;;;;;;;2.72;1.88;;;;;;;;;;5002600;28;20041;-80
2024/04/21 13:06:43;;;;;;;5.10;2.10;;;;;;;;;;5023328;28;20320;-79
2024/04/21 13:09:09;;;;;;;7.35;1.85;;;;;;;;;;5013234;28;20049;-76
2024/04/21 13:11:35;;;;;;;4.38;2.13;;;;;;;;;;5029913;28;20030;-76
2024/04/21 13:14:02;;;;;;;3.95;2.20;;;;;;;;;;5032706;28;20026;-76
2024/04/21 13:16:28;;;;;;;2.50;1.85;;;;;;;;;;5022314;28;20095;-79
2024/04/21 13:18:53;;;;;;;3.78;1.90;;;;;;;;;;5039873;28;20104;-78
2024/04/21 13:21:20;;;;;;;7.70;2.50;;;;;;;;;;5040790;28;20084;-75
2024/04/21 13:23:46;;;;;;;8.07;2.20;;;;;;;;;;5039599;28;20079;-77
2024/04/21 13:26:12;;;;;;;3.20;2.15;;;;;;;;;;5034413;28;20029;-77
2024/04/21 13:28:38;;;;;;;3.10;2.67;;;;;;;;;;5037289;28;20045;-77
2024/04/21 13:31:05;;;;;;;10.40;2.30;;;;;;;;;;4978949;28;20064;-78
2024/04/21 13:33:31;;;;;;;15.05;2.55;;;;;;;;;;5033598;28;20115;-78
2024/04/21 13:35:57;;;;;;;3.47;2.50;;;;;;;;;;5035725;28;20064;-80
2024/04/21 13:38:23;;;;;;;3.50;2.45;;;;;;;;;;5012859;28;20056;-78
2024/04/21 13:40:49;;;;;;;5.28;1.90;;;;;;;;;;5020090;28;20037;-80
2024/04/21 13:43:15;;;;;;;2.10;1.90;;;;;;;;;;5023499;28;20037;-79
2024/04/21 13:45:44;;;;;;;4.38;1.70;;;;;;;;;;5041026;28;20489;-79
2024/04/21 13:48:09;;;;;;;4.82;2.00;;;;;;;;;;5041329;28;20067;-79
2024/04/21 13:50:35;;;;;;;2.65;1.85;;;;;;;;;;5034624;28;20127;-81
2024/04/21 13:53:01;;;;;;;3.53;1.92;;;;;;;;;;4996082;28;20029;-78
2024/04/21 13:55:27;;;;;;;4.60;2.13;;;;;;;;;;5030433;28;20044;-80
2024/04/21 13:57:53;;;;;;;2.35;2.10;;;;;;;;;;5034752;28;20141;-79
2024/04/21 14:00:19;;;;;;;5.63;2.25;;;;;;;;;;5037267;28;20048;-79
2024/04/21 14:02:45;;;;;;;2.47;1.75;;;;;;;;;;5020128;28;20041;-80
2024/04/21 14:05:11;;;;;;;6.47;2.00;;;;;;;;;;5020827;28;20044;-78
2024/04/21 14:07:37;;;;;;;5.03;2.00;;;;;;;;;;5021987;28;20080;-80
2024/04/21 14:10:05;;;;;;;3.00;2.30;;;;;;;;;;5016722;28;20080;-79
2024/04/21 14:12:31;;;;;;;3.35;1.88;;;;;;;;;;5020716;28;20029;-80
2024/04/21 14:14:58;;;;;;;3.15;1.63;;;;;;;;;;5039179;28;20061;-81
2024/04/21 14:17:43;;;;;;;8.07;2.45;;;;;;;;;;5039160;28;20116;-79
2024/04/21 14:20:09;;;;;;;3.55;2.10;;;;;;;;;;5001801;28;20046;-80
2024/04/21 14:22:35;;;;;;;4.75;1.90;;;;;;;;;;5034955;28;20032;-80
2024/04/21 14:25:02;;;;;;;5.60;2.30;;;;;;;;;;5007325;28;20504;-79
2024/04/21 14:27:30;;;;;;;5.32;1.90;;;;;;;;;;5017896;28;20039;-80
2024/04/21 14:29:55;;;;;;;5.53;2.50;;;;;;;;;;5025248;28;20109;-79
2024/04/21 14:32:24;;;;;;;3.53;2.20;;;;;;;;;;5040424;28;20037;-79
2024/04/21 14:34:49;;;;;;;16.98;2.50;;;;;;;;;;5038666;28;20079;-78
2024/04/21 14:37:15;;;;;;;10.68;2.42;;;;;;;;;;5022558;28;20111;-81
2024/04/21 14:39:41;;;;;;;9.50;2.60;;;;;;;;;;5037752;28;20049;-79
2024/04/21 14:42:10;;;;;;;4.15;1.95;;;;;;;;;;5005039;28;20039;-79
2024/04/21 14:44:37;;;;;;;5.90;2.63;;;;;;;;;;5003776;28;20038;-79
2024/04/21 14:47:03;;;;;;;6.70;2.53;;;;;;;;;;5002630;28;20033;-78
2024/04/21 14:49:30;;;;;;;3.55;2.03;;;;;;;;;;5035870;28;20041;-78
2024/04/21 14:51:56;;;;;;;3.67;1.83;;;;;;;;;;5021464;28;20045;-79
2024/04/21 14:54:22;;;;;;;7.50;2.22;;;;;;;;;;5034188;28;20132;-79
2024/04/21 14:56:48;;;;;;;6.95;2.45;;;;;;;;;;5037969;28;20076;-78
2024/04/21 14:59:14;;;;;;;6.68;2.30;;;;;;;;;;5017102;28;20045;-78
2024/04/21 15:01:40;;;;;;;2.90;2.22;;;;;;;;;;5038054;28;20468;-78
2024/04/21 15:04:06;;;;;;;7.75;2.42;;;;;;;;;;5020880;28;20068;-78
2024/04/21 15:06:32;;;;;;;5.18;2.10;;;;;;;;;;5020896;28;20113;-79
2024/04/21 15:09:01;;;;;;;4.00;2.00;;;;;;;;;;5013140;28;20069;-79
2024/04/21 15:11:28;;;;;;;4.55;2.63;;;;;;;;;;5017084;28;20057;-78
2024/04/21 15:13:54;;;;;;;5.20;2.47;;;;;;;;;;5018185;28;20080;-79
2024/04/21 15:16:24;;;;;;;4.55;2.10;;;;;;;;;;5003610;28;20096;-79
2024/04/21 15:18:50;;;;;;;5.60;2.58;;;;;;;;;;4984027;28;20115;-79
2024/04/21 15:21:16;;;;;;;10.52;2.60;;;;;;;;;;5036730;28;20025;-79
2024/04/21 15:23:41;;;;;;;7.65;2.30;;;;;;;;;;5018058;28;20040;-77
2024/04/21 15:26:07;;;;;;;8.60;2.30;;;;;;;;;;5017736;28;20037;-79
2024/04/21 15:28:33;;;;;;;4.70;1.98;;;;;;;;;;5012819;28;20044;-79
2024/04/21 15:30:59;;;;;;;7.55;2.67;;;;;;;;;;5020650;28;20037;-78
2024/04/21 15:33:25;;;;;;;10.43;2.30;;;;;;;;;;5019960;28;20511;-79
2024/04/21 15:35:51;;;;;;;10.50;2.88;;;;;;;;;;5022876;28;20045;-78
2024/04/21 15:38:17;;;;;;;8.27;2.90;;;;;;;;;;5000508;28;20065;-79
2024/04/21 15:40:43;;;;;;;4.38;2.65;;;;;;;;;;5033870;28;20458;-79
2024/04/21 15:43:08;;;;;;;5.53;2.60;;;;;;;;;;5015044;28;20501;-78
2024/04/21 15:45:37;;;;;;;3.45;2.10;;;;;;;;;;5020799;28;20481;-80
2024/04/21 15:48:03;;;;;;;8.68;2.72;;;;;;;;;;5004159;28;20043;-79
2024/04/21 15:50:29;;;;;;;3.67;2.50;;;;;;;;;;5001650;28;20045;-79
2024/04/21 15:52:55;;;;;;;4.07;2.42;;;;;;;;;;5037007;28;20037;-78
2024/04/21 15:55:21;;;;;;;4.35;2.30;;;;;;;;;;5037615;28;20041;-79
2024/04/21 15:57:47;;;;;;;4.20;2.58;;;;;;;;;;5035970;28;20294;-78
2024/04/21 16:00:13;;;;;;;8.05;2.45;;;;;;;;;;5015863;28;20405;-77
2024/04/21 16:02:41;;;;;;;7.45;3.45;;;;;;;;;;5033581;28;20501;-78
2024/04/21 16:05:08;;;;;;;3.50;2.30;;;;;;;;;;5036086;28;20052;-78
2024/04/21 16:07:33;;;;;;;4.65;2.40;;;;;;;;;;4980408;28;20021;-77
2024/04/21 16:10:01;;;;;;;5.13;2.40;;;;;;;;;;5002456;28;20064;-78
2024/04/21 16:12:33;;;;;;;3.95;2.35;;;;;;;;;;5016969;28;20036;-78
2024/04/21 16:15:01;;;;;;;13.32;3.00;;;;;;;;;;5043856;28;20527;-78
2024/04/21 16:17:31;;;;;;;3.08;2.03;;;;;;;;;;5034948;28;20034;-77
2024/04/21 16:19:57;;;;;;;11.35;2.80;;;;;;;;;;5030771;28;20471;-78
2024/04/21 16:22:23;;;;;;;1.98;1.88;;;;;;;;;;5025958;28;20029;-78
2024/04/21 16:24:49;;;;;;;3.25;2.97;;;;;;;;;;4987955;28;20100;-79
2024/04/21 16:27:15;;;;;;;3.92;2.30;;;;;;;;;;5025357;28;20029;-79
2024/04/21 16:29:41;;;;;;;4.97;2.00;;;;;;;;;;5008803;28;20038;-77
2024/04/21 16:32:07;;;;;;;2.40;2.20;;;;;;;;;;5039624;28;20036;-78
2024/04/21 16:34:38;;;;;;;3.28;3.08;;;;;;;;;;4997269;28;20060;-78
2024/04/21 16:37:04;;;;;;;4.03;2.30;;;;;;;;;;5019229;28;20095;-79
2024/04/21 16:39:31;;;;;;;2.80;2.55;;;;;;;;;;4992272;28;20095;-77
2024/04/21 16:41:57;;;;;;;7.72;2.58;;;;;;;;;;5028750;28;20032;-79
2024/04/21 16:44:23;;;;;;;3.90;2.20;;;;;;;;;;5037838;28;20077;-78
2024/04/21 16:46:49;;;;;;;3.28;2.95;;;;;;;;;;4999490;28;20850;-78
2024/04/21 16:49:15;;;;;;;3.35;2.42;;;;;;;;;;5031163;28;20449;-78
2024/04/21 16:51:41;;;;;;;2.65;2.45;;;;;;;;;;5002054;28;20041;-78
2024/04/21 16:54:07;;;;;;;7.65;2.83;;;;;;;;;;5015903;28;20498;-79
2024/04/21 16:56:33;;;;;;;4.72;2.60;;;;;;;;;;5009244;28;20095;-78
2024/04/21 16:59:02;;;;;;;3.55;2.28;;;;;;;;;;5042867;28;20107;-78
2024/04/21 17:01:28;;;;;;;3.17;2.30;;;;;;;;;;5033615;28;20036;-78
2024/04/21 17:03:57;;;;;;;4.90;2.70;;;;;;;;;;5048774;28;20531;-78
2024/04/21 17:06:22;;;;;;;6.03;2.75;;;;;;;;;;5018668;28;20454;-78
2024/04/21 17:08:48;;;;;;;4.40;2.30;;;;;;;;;;5044180;28;20045;-78
2024/04/21 17:11:17;;;;;;;3.85;2.45;;;;;;;;;;5029167;28;20075;-77
2024/04/21 17:13:43;;;;;;;3.03;1.95;;;;;;;;;;5045978;28;20025;-76
2024/04/21 17:16:09;;;;;;;5.43;3.20;;;;;;;;;;5014283;28;20501;-77
2024/04/21 17:18:37;;;;;;;3.70;2.92;;;;;;;;;;5031500;28;20061;-77
2024/04/21 17:21:10;;;;;;;6.38;3.00;;;;;;;;;;5000951;28;20041;-76
2024/04/21 17:23:36;;;;;;;5.70;3.80;;;;;;;;;;5031566;28;20447;-77
2024/04/21 17:26:02;;;;;;;6.78;5.05;;;;;;;;;;5032976;28;20037;-77
2024/04/21 17:28:29;;;;;;;3.83;3.50;;;;;;;;;;5017768;28;20128;-77
2024/04/21 17:30:56;;;;;;;9.00;4.07;;;;;;;;;;5050227;28;20033;-76
2024/04/21 17:33:22;;;;;;;7.55;4.40;;;;;;;;;;5037534;28;20783;-76
2024/04/21 17:35:48;;;;;;;6.55;5.00;;;;;;;;;;5053175;28;20068;-77
2024/04/21 17:38:14;;;;;;;8.75;4.05;;;;;;;;;;5016016;28;20053;-71
2024/04/21 17:40:40;;;;;;;10.82;3.70;;;;;;;;;;5032588;28;20033;-75
2024/04/21 17:43:06;;;;;;;4.25;3.78;;;;;;;;;;5049970;28;20090;-76
2024/04/21 17:45:35;;;;;;;6.05;2.80;;;;;;;;;;5029249;28;20029;-75
2024/04/21 17:48:03;;;;;;;6.15;4.25;;;;;;;;;;5018359;28;20448;-76
2024/04/21 17:50:30;;;;;;;7.38;3.50;;;;;;;;;;5012818;28;20648;-74
2024/04/21 17:52:56;;;;;;;6.45;3.50;;;;;;;;;;5014881;28;20032;-77
2024/04/21 17:55:22;;;;;;;3.63;3.10;;;;;;;;;;5036613;28;20032;-77
2024/04/21 17:57:48;;;;;;;12.15;3.40;;;;;;;;;;5048373;28;20068;-78
2024/04/21 18:00:14;;;;;;;7.57;2.95;;;;;;;;;;5030094;28;20049;-77
2024/04/21 18:02:40;;;;;;;7.20;3.10;;;;;;;;;;5048310;28;20094;-76
2024/04/21 18:05:08;;;;;;;8.80;3.30;;;;;;;;;;5053225;28;20024;-78
2024/04/21 18:07:37;;;;;;;5.18;2.83;;;;;;;;;;5016677;28;20033;-78
2024/04/21 18:10:04;;;;;;;5.55;2.50;;;;;;;;;;5031075;28;20053;-77
2024/04/21 18:12:31;;;;;;;8.13;2.60;;;;;;;;;;5032641;28;20037;-78
2024/04/21 18:14:57;;;;;;;3.25;2.70;;;;;;;;;;5036934;28;20039;-76
2024/04/21 18:17:23;;;;;;;5.38;3.15;;;;;;;;;;5049905;28;20045;-76
2024/04/21 18:19:49;;;;;;;7.20;3.15;;;;;;;;;;5048371;28;20048;-82
2024/04/21 18:22:22;;;;;;;9.25;2.97;;;;;;;;;;5015879;28;20080;-76
2024/04/21 18:24:49;;;;;;;3.35;3.05;;;;;;;;;;5018963;28;20044;-75
2024/04/21 18:27:14;;;;;;;13.45;3.08;;;;;;;;;;5048736;28;20036;-77
2024/04/21 18:29:40;;;;;;;5.28;3.10;;;;;;;;;;5048334;28;20155;-76
2024/04/21 18:32:06;;;;;;;6.78;2.90;;;;;;;;;;5011936;28;20033;-76
2024/04/21 18:34:32;;;;;;;5.25;3.17;;;;;;;;;;5048992;28;20029;-75
2024/04/21 18:36:58;;;;;;;9.38;3.58;;;;;;;;;;5046780;28;20033;-75
2024/04/21 18:39:23;;;;;;;3.90;2.90;;;;;;;;;;5010684;28;20111;-76
2024/04/21 18:41:49;;;;;;;4.60;2.60;;;;;;;;;;5031429;28;20017;-77
2024/04/21 18:44:16;;;;;;;6.93;3.08;;;;;;;;;;5033864;28;20032;-76
2024/04/21 18:46:41;;;;;;;6.63;3.22;;;;;;;;;;5004868;28;20032;-74
2024/04/21 18:49:07;;;;;;;9.27;3.40;;;;;;;;;;5046058;28;20131;-76
2024/04/21 18:51:36;;;;;;;6.80;3.20;;;;;;;;;;5014317;28;20424;-75
2024/04/21 18:54:03;;;;;;;10.35;3.83;;;;;;;;;;5049306;28;20444;-75
2024/04/21 18:56:29;;;;;;;19.02;3.58;;;;;;;;;;5029383;28;20033;-76
2024/04/21 18:58:55;;;;;;;3.92;2.80;;;;;;;;;;5027522;28;20495;-76
2024/04/21 19:01:21;;;;;;;3.78;3.47;;;;;;;;;;4996335;28;20029;-74
2024/04/21 19:03:46;;;;;;;14.52;3.22;;;;;;;;;;5046749;28;20044;-77
2024/04/21 19:06:14;;;;;;;3.40;2.95;;;;;;;;;;5010676;28;20442;-77
2024/04/21 19:08:40;;;;;;;9.38;3.20;;;;;;;;;;5046180;28;20049;-77
2024/04/21 19:11:09;;;;;;;9.35;3.53;;;;;;;;;;5053515;28;20052;-77
2024/04/21 19:13:42;;;;;;;7.10;2.78;;;;;;;;;;5047607;28;20052;-77
2024/04/21 19:16:08;;;;;;;4.18;2.92;;;;;;;;;;5032151;28;20469;-77
2024/04/21 19:18:34;;;;;;;4.22;2.83;;;;;;;;;;5034785;28;20124;-77
2024/04/21 19:21:00;;;;;;;3.95;3.10;;;;;;;;;;5032716;28;20044;-78
2024/04/21 19:23:27;;;;;;;7.22;3.05;;;;;;;;;;5030964;28;20040;-78
2024/04/21 19:25:54;;;;;;;6.15;3.35;;;;;;;;;;5027211;28;20941;-77
2024/04/21 19:28:21;;;;;;;9.63;3.58;;;;;;;;;;5046189;28;20601;-75
2024/04/21 19:30:47;;;;;;;5.53;3.97;;;;;;;;;;5027593;28;20059;-76
2024/04/21 19:33:13;;;;;;;5.18;3.45;;;;;;;;;;5043840;28;20497;-77
2024/04/21 19:35:41;;;;;;;6.93;3.85;;;;;;;;;;5047237;28;20025;-78
2024/04/21 19:38:07;;;;;;;6.18;3.80;;;;;;;;;;5026688;28;20045;-80
2024/04/21 19:40:33;;;;;;;11.10;3.55;;;;;;;;;;5048519;28;20032;-80
2024/04/21 19:43:00;;;;;;;9.70;3.80;;;;;;;;;;5047193;28;20045;-79
2024/04/21 19:45:27;;;;;;;6.22;3.60;;;;;;;;;;5047047;28;20522;-81
2024/04/21 19:47:53;;;;;;;9.23;3.70;;;;;;;;;;5048629;28;20134;-79
2024/04/21 19:50:19;;;;;;;6.75;3.45;;;;;;;;;;5030485;28;20036;-78
2024/04/21 19:52:45;;;;;;;6.90;4.30;;;;;;;;;;5048120;28;20416;-77
2024/04/21 19:55:11;;;;;;;8.45;4.40;;;;;;;;;;5046611;28;20079;-78
2024/04/21 19:57:40;;;;;;;7.00;3.90;;;;;;;;;;5034551;28;20075;-75
2024/04/21 20:00:06;;;;;;;8.23;3.83;;;;;;;;;;5029909;28;20061;-77
2024/04/21 20:02:39;;;;;;;5.85;4.00;;;;;;;;;;5031247;28;20060;-75
2024/04/21 20:05:05;;;;;;;5.90;4.30;;;;;;;;;;5033637;28;20079;-76
2024/04/21 20:07:35;;;;;;;6.88;3.92;;;;;;;;;;5029422;28;20033;-73
2024/04/21 20:10:02;;;;;;;5.75;4.38;;;;;;;;;;5019695;28;20061;-76
2024/04/21 20:12:31;;;;;;;4.95;3.67;;;;;;;;;;5016603;28;20038;-78
2024/04/21 20:20:27;;;;;;;10.93;4.57;;;;;;;;;;5042858;28;20119;-77
2024/04/21 20:22:53;;;;;;;8.95;4.30;;;;;;;;;;5050489;28;20048;-76
2024/04/21 20:25:18;;;;;;;7.05;4.07;;;;;;;;;;5025892;28;20029;-75
2024/04/21 20:27:45;;;;;;;10.88;4.05;;;;;;;;;;5010621;28;20067;-75
2024/04/21 20:30:11;;;;;;;4.60;4.13;;;;;;;;;;5042077;28;20044;-75
2024/04/21 20:32:37;;;;;;;11.20;4.10;;;;;;;;;;5042859;28;20468;-76
2024/04/21 20:35:04;;;;;;;4.30;3.45;;;;;;;;;;5040929;28;20033;-74
2024/04/21 20:37:30;;;;;;;7.97;4.80;;;;;;;;;;5042428;28;20067;-75
2024/04/21 20:39:56;;;;;;;6.65;3.80;;;;;;;;;;5024708;28;20073;-74
2024/04/21 20:42:22;;;;;;;7.20;4.40;;;;;;;;;;5022213;28;20538;-74
2024/04/21 20:44:48;;;;;;;4.28;3.53;;;;;;;;;;5028473;28;20454;-76
2024/04/21 20:47:14;;;;;;;7.68;3.80;;;;;;;;;;5053966;28;20029;-74
2024/04/21 20:49:39;;;;;;;4.55;4.15;;;;;;;;;;5024912;28;20036;-75
2024/04/21 20:52:05;;;;;;;10.07;3.33;;;;;;;;;;5011292;28;20401;-75
2024/04/21 20:54:31;;;;;;;6.95;3.78;;;;;;;;;;5014462;28;20531;-75
2024/04/21 20:56:57;;;;;;;6.97;3.63;;;;;;;;;;5012066;28;20061;-75
2024/04/21 20:59:23;;;;;;;5.88;3.67;;;;;;;;;;5025152;28;20048;-76
2024/04/21 21:01:49;;;;;;;4.55;3.67;;;;;;;;;;5040371;28;20508;-75
2024/04/21 21:04:15;;;;;;;6.80;3.60;;;;;;;;;;5012841;28;20043;-76
2024/04/21 21:06:42;;;;;;;3.67;2.72;;;;;;;;;;5028980;28;20464;-76
2024/04/21 21:09:08;;;;;;;3.58;3.00;;;;;;;;;;5008643;28;20329;-76
2024/04/21 21:11:33;;;;;;;5.68;3.17;;;;;;;;;;5048468;28;20132;-76
2024/04/21 21:14:00;;;;;;;5.47;3.33;;;;;;;;;;5034263;28;20097;-76
2024/04/21 21:16:25;;;;;;;8.10;3.40;;;;;;;;;;5027481;28;20060;-77
2024/04/21 21:18:54;;;;;;;5.20;3.13;;;;;;;;;;5035320;28;20115;-78
2024/04/21 21:21:20;;;;;;;11.10;3.85;;;;;;;;;;5015029;28;20032;-74
2024/04/21 21:23:47;;;;;;;5.45;3.88;;;;;;;;;;5054066;28;20354;-74
2024/04/21 21:26:12;;;;;;;6.03;3.97;;;;;;;;;;5029054;28;20439;-76
2024/04/21 21:28:39;;;;;;;5.70;3.30;;;;;;;;;;5056205;28;20044;-76
2024/04/21 21:31:06;;;;;;;4.38;3.22;;;;;;;;;;5058735;28;20428;-75
2024/04/21 21:33:33;;;;;;;4.35;3.10;;;;;;;;;;5030235;28;20530;-76
2024/04/21 21:36:00;;;;;;;4.10;3.10;;;;;;;;;;5037092;28;20075;-77
2024/04/21 21:38:26;;;;;;;4.80;3.13;;;;;;;;;;5012809;28;20068;-76
2024/04/21 21:40:54;;;;;;;2.60;2.30;;;;;;;;;;5063099;28;20036;-79
2024/04/21 21:43:20;;;;;;;4.28;2.70;;;;;;;;;;5056110;28;20055;-76
2024/04/21 21:45:47;;;;;;;3.35;2.78;;;;;;;;;;5040989;28;20029;-77
2024/04/21 21:48:13;;;;;;;7.00;2.65;;;;;;;;;;5032872;28;20098;-72
2024/04/21 21:50:41;;;;;;;4.13;2.58;;;;;;;;;;5020604;28;20084;-75
2024/04/21 21:53:07;;;;;;;3.15;2.13;;;;;;;;;;5041150;28;20060;-75
2024/04/21 21:55:33;;;;;;;5.72;3.20;;;;;;;;;;5053391;28;20061;-75
2024/04/21 21:58:02;;;;;;;4.78;2.53;;;;;;;;;;5008958;28;20522;-74
2024/04/21 22:00:28;;;;;;;5.05;2.80;;;;;;;;;;5038587;28;20076;-76
2024/04/21 22:02:54;;;;;;;3.33;2.60;;;;;;;;;;5044011;28;20112;-76
2024/04/21 22:05:19;;;;;;;6.38;2.60;;;;;;;;;;5023790;28;20112;-76
2024/04/21 22:07:46;;;;;;;5.75;2.40;;;;;;;;;;5045963;28;20068;-77
2024/04/21 22:10:12;;;;;;;2.40;2.20;;;;;;;;;;5047245;28;20090;-77
2024/04/21 22:12:38;;;;;;;5.20;2.30;;;;;;;;;;5029446;28;20037;-74
2024/04/21 22:15:04;;;;;;;4.32;2.40;;;;;;;;;;5051600;28;20454;-76
2024/04/21 22:17:30;;;;;;;2.95;2.75;;;;;;;;;;5065928;28;20124;-76
2024/04/21 22:19:56;;;;;;;2.78;2.38;;;;;;;;;;5066971;28;20596;-77
2024/04/21 22:22:23;;;;;;;4.18;2.45;;;;;;;;;;5070443;28;20508;-75
2024/04/21 22:24:48;;;;;;;5.22;2.50;;;;;;;;;;5052555;28;20048;-77
2024/04/21 22:27:14;;;;;;;7.00;2.80;;;;;;;;;;5067902;28;20040;-73
2024/04/21 22:29:40;;;;;;;5.18;2.60;;;;;;;;;;5048097;28;20036;-75
2024/04/21 22:32:26;;;;;;;7.13;2.80;;;;;;;;;;5043245;28;20130;-76
2024/04/21 22:34:53;;;;;;;3.42;2.42;;;;;;;;;;5044432;28;20047;-75
2024/04/21 22:37:19;;;;;;;2.78;2.55;;;;;;;;;;5029410;28;20044;-75
2024/04/21 22:39:48;;;;;;;3.72;2.40;;;;;;;;;;5041456;28;20048;-78
2024/04/21 22:42:14;;;;;;;6.00;2.55;;;;;;;;;;5062335;28;20051;-76
2024/04/21 22:44:39;;;;;;;2.60;2.50;;;;;;;;;;5061715;28;20512;-79
2024/04/21 22:47:06;;;;;;;3.97;2.78;;;;;;;;;;5059608;28;20416;-76
2024/04/21 22:49:32;;;;;;;2.53;2.30;;;;;;;;;;5024295;28;20038;-76
2024/04/21 22:51:58;;;;;;;3.78;2.65;;;;;;;;;;5039587;28;20044;-76
2024/04/21 22:54:26;;;;;;;4.82;2.85;;;;;;;;;;5047122;28;20064;-75
2024/04/21 22:56:53;;;;;;;4.15;2.80;;;;;;;;;;5043307;28;20044;-76
2024/04/21 22:59:20;;;;;;;5.30;2.40;;;;;;;;;;5036361;28;20642;-74
2024/04/21 23:01:46;;;;;;;5.45;2.22;;;;;;;;;;5039635;28;20037;-75
2024/04/21 23:04:12;;;;;;;4.28;2.60;;;;;;;;;;5060185;28;20033;-74
2024/04/21 23:06:38;;;;;;;3.72;2.53;;;;;;;;;;5046581;28;20056;-75
2024/04/21 23:09:05;;;;;;;3.08;2.50;;;;;;;;;;5058512;28;20610;-75
2024/04/21 23:11:31;;;;;;;3.47;2.75;;;;;;;;;;5033829;28;20136;-75
2024/04/21 23:13:57;;;;;;;2.95;2.60;;;;;;;;;;5035441;28;20599;-75
2024/04/21 23:16:23;;;;;;;6.35;2.50;;;;;;;;;;5019354;28;20042;-73
2024/04/21 23:18:50;;;;;;;3.80;2.78;;;;;;;;;;5002239;28;20069;-75
2024/04/21 23:21:16;;;;;;;2.88;2.42;;;;;;;;;;5022082;28;20408;-76
2024/04/21 23:23:42;;;;;;;4.38;2.60;;;;;;;;;;5018263;28;20562;-74
2024/04/21 23:26:08;;;;;;;5.05;2.70;;;;;;;;;;5042834;28;20059;-77
2024/04/21 23:28:34;;;;;;;4.80;3.30;;;;;;;;;;5036802;28;20496;-75
2024/04/21 23:31:00;;;;;;;3.47;2.78;;;;;;;;;;5042024;28;20094;-76
2024/04/21 23:33:26;;;;;;;5.70;2.28;;;;;;;;;;5002107;28;20041;-76
2024/04/21 23:35:52;;;;;;;3.20;2.63;;;;;;;;;;5040248;28;20041;-76
2024/04/21 23:38:19;;;;;;;4.35;2.50;;;;;;;;;;5041371;28;20064;-75
2024/04/21 23:40:45;;;;;;;8.95;2.90;;;;;;;;;;5003949;28;20100;-76
2024/04/21 23:43:11;;;;;;;6.63;2.85;;;;;;;;;;5016564;28;20605;-75
2024/04/21 23:45:40;;;;;;;5.80;2.80;;;;;;;;;;5004859;28;20147;-74
2024/04/21 23:48:06;;;;;;;2.78;2.28;;;;;;;;;;5007036;28;20052;-76
2024/04/21 23:50:32;;;;;;;2.83;2.63;;;;;;;;;;5017721;28;20118;-75
2024/04/21 23:52:57;;;;;;;2.70;2.50;;;;;;;;;;5024095;28;20032;-76
2024/04/21 23:55:23;;;;;;;5.15;2.70;;;;;;;;;;5018290;28;20849;-75
2024/04/21 23:57:49;;;;;;;8.07;3.05;;;;;;;;;;5041007;28;20627;-75
